Rex, North Carolina
Current Conditions -  °F | °C
As of 4:53 PM on Tuesday 21 Oct 2014 (Local Time) from KFAY Reporting Station
Scattered Clouds Scattered Clouds  
Wind Chill: 75°   Ceiling: Unl
Heat Index: 75°   Visibility: 10mi
Dew Point: 46°   Wind: 12mph
Humidity: 36%   Direction: 260°W
Pressure: 29.83"   Gusts: NA
Location:  34.86°N, 79.05°W
Report Text: KFAY 212053Z 26010KT 10SM SCT070 24/08 A2983 RMK AO2 SLP095 T02390078 56008
Loading
Personal Weather Stations






























Interactive Weather Map
Tropical Storm Tracking
New forecast layout! Learn more

10-Day Weather Forecast

Advertisements
Track Severe Weather on mobile